Leonidas, Michigan
Current Conditions -  °F | °C
As of 10:55 AM on Saturday 20 Dec 2014 (Local Time) from KHAI Reporting Station
Haze Haze  
Wind Chill: 27°   Ceiling: 2900
Heat Index: 27°   Visibility: 3mi
Dew Point: 24°   Wind: 0mph
Humidity: 92%   Direction: NA
Pressure: 30.29"   Gusts: NA
Location:  42.02°N, 85.35°W
Report Text: KHAI 201555Z AUTO 00000KT 3SM BR OVC029 M03/M04 A3029 RMK AO2 T10301042
Loading
Personal Weather Stations






























Interactive Weather Map New forecast layout! Learn more

10-Day Weather Forecast

Advertisements
Track Severe Weather on mobile